Time;durP1;ratioP1;P1;durP2;ratioP2;P2;SDS_P1;SDS_P2;PMS_P1;PMS_P2;Temp;Humidity;BMP_temperature;BMP_pressure;BME280_temperature;BME280_humidity;BME280_pressure;Samples;Min_cycle;Max_cycle;Signal;HPM_P1;HPM_P2
2023/07/14 00:00:31;;;;;;;1.95;1.55;;;18.60;74.90;;;;;;5001762;28;20080;-61
2023/07/14 00:02:58;;;;;;;2.75;1.55;;;18.50;74.90;;;;;;5000421;28;20037;-62
2023/07/14 00:05:31;;;;;;;2.42;1.80;;;18.40;74.70;;;;;;4998341;28;20390;-61
2023/07/14 00:07:57;;;;;;;3.58;1.73;;;18.40;75.40;;;;;;4999100;28;20030;-61
2023/07/14 00:10:25;;;;;;;2.05;1.60;;;18.30;74.90;;;;;;4996951;28;20041;-61
2023/07/14 00:12:54;;;;;;;3.30;1.38;;;18.30;74.80;;;;;;4996488;28;20033;-61
2023/07/14 00:15:23;;;;;;;1.85;1.60;;;18.20;74.90;;;;;;4999247;28;20120;-61
2023/07/14 00:17:53;;;;;;;3.03;1.90;;;18.20;75.00;;;;;;4999299;28;20030;-61
2023/07/14 00:20:27;;;;;;;2.72;1.70;;;18.10;75.40;;;;;;4999536;28;20034;-60
2023/07/14 00:22:54;;;;;;;2.00;1.67;;;18.10;75.90;;;;;;4998198;28;20417;-62
2023/07/14 00:25:22;;;;;;;1.90;1.65;;;18.00;75.60;;;;;;5000229;28;20065;-63
2023/07/14 00:27:52;;;;;;;2.25;1.75;;;18.00;75.70;;;;;;5002284;28;20072;-62
2023/07/14 00:30:20;;;;;;;2.70;1.60;;;18.00;76.00;;;;;;5001412;28;20107;-60
2023/07/14 00:32:48;;;;;;;3.55;1.88;;;17.90;75.90;;;;;;4999607;28;20537;-62
2023/07/14 00:35:41;;;;;;;4.07;1.58;;;17.90;76.30;;;;;;5000064;28;20128;-62
2023/07/14 00:38:06;;;;;;;2.97;1.63;;;17.90;77.60;;;;;;4997202;28;20053;-61
2023/07/14 00:40:36;;;;;;;2.67;1.83;;;17.90;76.80;;;;;;4996871;28;20041;-62
2023/07/14 00:43:04;;;;;;;2.67;1.48;;;18.00;77.30;;;;;;5000505;28;20169;-62
2023/07/14 00:45:30;;;;;;;2.20;1.67;;;18.00;76.80;;;;;;5004063;28;20030;-61
2023/07/14 00:48:03;;;;;;;1.90;1.70;;;18.10;76.50;;;;;;5004558;28;20156;-61
2023/07/14 00:50:41;;;;;;;1.77;1.48;;;18.00;76.60;;;;;;5004015;28;20034;-61
2023/07/14 00:53:17;;;;;;;2.35;1.42;;;18.00;77.00;;;;;;5005716;28;20034;-62
2023/07/14 00:55:46;;;;;;;1.85;1.67;;;18.00;76.60;;;;;;5004016;28;20501;-60
2023/07/14 00:58:31;;;;;;;2.15;1.88;;;18.00;76.40;;;;;;5002550;28;20034;-61
2023/07/14 01:01:24;;;;;;;3.65;1.60;;;18.00;76.80;;;;;;4999336;28;20045;-62
2023/07/14 01:03:57;;;;;;;2.65;1.63;;;18.00;76.60;;;;;;5000886;28;20456;-62
2023/07/14 01:06:27;;;;;;;2.97;1.67;;;17.90;76.30;;;;;;4996817;28;20056;-62
2023/07/14 01:09:01;;;;;;;5.97;1.80;;;17.90;76.20;;;;;;4997262;28;20122;-61
2023/07/14 01:11:37;;;;;;;2.15;1.63;;;17.90;76.90;;;;;;5000382;28;20048;-61
2023/07/14 01:14:07;;;;;;;1.65;1.55;;;17.80;76.40;;;;;;5004621;28;20042;-62
2023/07/14 01:16:35;;;;;;;2.92;1.77;;;17.70;76.30;;;;;;5002442;28;20041;-62
2023/07/14 01:19:03;;;;;;;1.95;1.65;;;17.70;76.50;;;;;;5003202;28;20123;-60
2023/07/14 01:21:30;;;;;;;2.95;1.80;;;17.60;76.20;;;;;;5001878;28;20046;-61
2023/07/14 01:24:21;;;;;;;5.03;1.73;;;17.60;76.30;;;;;;5001847;28;20030;-61
2023/07/14 01:27:04;;;;;;;3.50;1.55;;;17.40;77.00;;;;;;5001951;28;20449;-62
2023/07/14 01:29:32;;;;;;;1.67;1.52;;;17.50;77.50;;;;;;5001555;28;20046;-62
2023/07/14 01:31:59;;;;;;;5.07;1.75;;;17.50;76.80;;;;;;5002082;28;20038;-62
2023/07/14 01:34:24;;;;;;;1.73;1.63;;;17.50;76.60;;;;;;5002721;28;20057;-62
2023/07/14 01:36:50;;;;;;;2.22;1.88;;;17.40;76.70;;;;;;5002284;28;21943;-61
2023/07/14 01:39:17;;;;;;;3.97;1.55;;;17.40;76.90;;;;;;5000668;28;20537;-62
2023/07/14 01:41:43;;;;;;;2.92;1.73;;;17.30;77.00;;;;;;5001373;28;20049;-63
2023/07/14 01:44:16;;;;;;;1.65;1.50;;;17.30;77.30;;;;;;5001433;28;20038;-63
2023/07/14 01:46:42;;;;;;;2.60;1.75;;;17.20;78.10;;;;;;5001595;28;20111;-62
2023/07/14 01:49:28;;;;;;;3.25;1.50;;;17.30;77.90;;;;;;5001665;28;20529;-63
2023/07/14 01:51:57;;;;;;;1.90;1.80;;;17.30;77.70;;;;;;5002575;28;20065;-62
2023/07/14 01:54:33;;;;;;;2.92;1.88;;;17.30;77.70;;;;;;5001332;28;20327;-61
2023/07/14 01:57:01;;;;;;;2.97;1.73;;;17.20;77.80;;;;;;5001357;28;20184;-61
2023/07/14 01:59:43;;;;;;;2.33;1.80;;;17.20;77.80;;;;;;4999644;28;20050;-62
2023/07/14 02:02:15;;;;;;;2.83;1.58;;;17.10;78.30;;;;;;5001733;28;20038;-60
2023/07/14 02:04:41;;;;;;;3.20;1.75;;;17.10;77.90;;;;;;5000425;28;20046;-61
2023/07/14 02:07:12;;;;;;;3.72;1.88;;;17.10;77.90;;;;;;5004310;28;20517;-62
2023/07/14 02:09:41;;;;;;;2.35;1.90;;;17.00;78.40;;;;;;5001254;28;20026;-60
2023/07/14 02:12:14;;;;;;;3.60;2.00;;;17.00;78.30;;;;;;5000639;28;20121;-61
2023/07/14 02:14:52;;;;;;;1.85;1.75;;;17.00;78.50;;;;;;4999939;28;20033;-61
2023/07/14 02:17:27;;;;;;;2.28;1.80;;;17.10;78.60;;;;;;5000822;28;20053;-62
2023/07/14 02:19:54;;;;;;;1.98;1.88;;;17.10;78.30;;;;;;5001914;28;20034;-62
2023/07/14 02:22:21;;;;;;;4.38;1.90;;;17.10;77.90;;;;;;5004248;28;20034;-63
2023/07/14 02:24:48;;;;;;;4.38;1.70;;;17.10;77.80;;;;;;5000423;28;20046;-61
2023/07/14 02:27:16;;;;;;;2.38;1.70;;;17.20;77.90;;;;;;5001477;28;20070;-62
2023/07/14 02:29:41;;;;;;;3.55;2.00;;;17.10;77.70;;;;;;4999102;28;20319;-63
2023/07/14 02:32:26;;;;;;;2.83;1.73;;;17.20;77.70;;;;;;5001752;28;20030;-61
2023/07/14 02:35:01;;;;;;;3.47;1.83;;;17.10;77.90;;;;;;5000696;28;20520;-62
2023/07/14 02:37:44;;;;;;;3.78;2.10;;;17.10;77.50;;;;;;5003099;28;20045;-59
2023/07/14 02:40:12;;;;;;;1.67;1.58;;;17.10;77.40;;;;;;5000938;28;20057;-60
2023/07/14 02:42:39;;;;;;;5.68;1.80;;;17.00;77.30;;;;;;5000060;28;20069;-63
2023/07/14 02:45:06;;;;;;;3.53;1.83;;;17.00;77.50;;;;;;5001225;28;20127;-61
2023/07/14 02:47:36;;;;;;;2.20;1.90;;;17.00;77.60;;;;;;5001837;28;20041;-63
2023/07/14 02:50:03;;;;;;;1.83;1.70;;;17.00;77.60;;;;;;5000555;28;20042;-62
2023/07/14 02:52:29;;;;;;;1.70;1.60;;;17.10;77.60;;;;;;5000709;28;20099;-62
2023/07/14 02:54:54;;;;;;;1.98;1.73;;;17.10;77.50;;;;;;5001216;28;20034;-62
2023/07/14 02:57:20;;;;;;;2.38;1.85;;;17.10;77.10;;;;;;5000859;28;20069;-62
2023/07/14 02:59:45;;;;;;;2.22;1.90;;;17.00;76.80;;;;;;4999184;28;20034;-62
2023/07/14 03:02:11;;;;;;;3.03;2.00;;;16.90;76.80;;;;;;5000825;28;20427;-61
2023/07/14 03:04:36;;;;;;;2.47;2.00;;;16.90;77.40;;;;;;4998785;28;20039;-62
2023/07/14 03:07:05;;;;;;;1.70;1.60;;;16.90;77.70;;;;;;4999935;28;20513;-63
2023/07/14 03:09:31;;;;;;;4.45;1.92;;;16.80;77.60;;;;;;4997682;28;20037;-62
2023/07/14 03:11:56;;;;;;;2.83;2.00;;;16.80;77.70;;;;;;5001594;28;20524;-63
2023/07/14 03:14:22;;;;;;;2.50;1.88;;;16.70;77.90;;;;;;4998332;28;20141;-62
2023/07/14 03:16:50;;;;;;;3.95;1.80;;;16.70;78.00;;;;;;5000477;28;20038;-62
2023/07/14 03:19:19;;;;;;;2.40;1.80;;;16.70;78.00;;;;;;4999983;28;20046;-62
2023/07/14 03:21:44;;;;;;;5.40;1.80;;;16.60;77.90;;;;;;5000644;28;20050;-62
2023/07/14 03:24:10;;;;;;;2.45;1.92;;;16.50;78.00;;;;;;5000342;28;20037;-61
2023/07/14 03:26:36;;;;;;;4.43;1.92;;;16.40;78.20;;;;;;5000134;28;20042;-60
2023/07/14 03:29:01;;;;;;;3.28;1.90;;;16.40;78.70;;;;;;4997922;28;21710;-63
2023/07/14 03:31:27;;;;;;;3.00;1.80;;;16.30;78.90;;;;;;4999512;28;20038;-62
2023/07/14 03:33:55;;;;;;;4.45;1.98;;;16.30;79.20;;;;;;5002311;28;20049;-62
2023/07/14 03:36:20;;;;;;;2.20;2.00;;;16.30;79.40;;;;;;5001357;28;20049;-62
2023/07/14 03:38:46;;;;;;;2.47;1.80;;;16.20;79.50;;;;;;5002882;28;20522;-61
2023/07/14 03:41:14;;;;;;;2.30;1.60;;;16.30;79.60;;;;;;4997865;28;20326;-62
2023/07/14 03:43:46;;;;;;;2.08;1.63;;;16.30;79.50;;;;;;5000005;28;20040;-63
2023/07/14 03:46:12;;;;;;;3.53;1.90;;;16.30;79.30;;;;;;5001105;28;20030;-63
2023/07/14 03:48:37;;;;;;;7.80;2.08;;;16.40;79.30;;;;;;4997456;28;20092;-63
2023/07/14 03:51:04;;;;;;;4.72;1.70;;;16.40;79.30;;;;;;4999821;28;20770;-61
2023/07/14 03:53:30;;;;;;;4.28;2.00;;;16.40;79.20;;;;;;5001741;28;20129;-62
2023/07/14 03:56:02;;;;;;;1.98;1.70;;;16.50;78.70;;;;;;5013745;28;20503;-62
2023/07/14 03:58:28;;;;;;;5.22;2.10;;;16.40;78.40;;;;;;4985974;28;20091;-62
2023/07/14 04:00:59;;;;;;;2.58;2.00;;;16.40;78.40;;;;;;4985004;28;20038;-61
2023/07/14 04:03:24;;;;;;;3.00;2.05;;;16.40;79.00;;;;;;4984557;28;20124;-61
2023/07/14 04:05:50;;;;;;;5.13;2.20;;;16.30;78.90;;;;;;4985675;28;20490;-61
2023/07/14 04:08:15;;;;;;;4.65;2.20;;;16.30;79.20;;;;;;4987318;28;20034;-62
2023/07/14 04:10:41;;;;;;;4.55;1.90;;;16.30;79.40;;;;;;4986396;28;20041;-61
2023/07/14 04:13:06;;;;;;;2.75;2.30;;;16.30;79.60;;;;;;4986658;28;20031;-61
2023/07/14 04:15:32;;;;;;;4.38;2.10;;;16.30;79.80;;;;;;4985282;28;20522;-62
2023/07/14 04:18:00;;;;;;;3.45;2.17;;;16.30;79.60;;;;;;4985288;28;20412;-60
2023/07/14 04:20:25;;;;;;;2.83;1.80;;;16.20;79.50;;;;;;4987546;28;20039;-61
2023/07/14 04:22:51;;;;;;;3.95;2.22;;;16.20;79.70;;;;;;4989736;28;20081;-61
2023/07/14 04:25:19;;;;;;;2.72;2.17;;;16.20;79.80;;;;;;4989901;28;20077;-61
2023/07/14 04:27:45;;;;;;;2.25;2.05;;;16.10;80.20;;;;;;4987433;28;20045;-61
2023/07/14 04:30:11;;;;;;;5.13;1.90;;;16.10;80.30;;;;;;4980869;28;20413;-62
2023/07/14 04:32:37;;;;;;;4.47;2.00;;;16.10;80.60;;;;;;4985346;28;20355;-62
2023/07/14 04:35:04;;;;;;;3.55;2.15;;;16.20;81.00;;;;;;4984959;28;20089;-62
2023/07/14 04:37:29;;;;;;;3.17;2.10;;;16.20;81.20;;;;;;4988718;28;20757;-62
2023/07/14 04:39:55;;;;;;;3.10;1.85;;;16.20;81.30;;;;;;4987948;28;20380;-62
2023/07/14 04:42:21;;;;;;;4.13;2.00;;;16.30;81.30;;;;;;4987173;28;20030;-62
2023/07/14 04:44:46;;;;;;;4.72;2.45;;;16.30;81.30;;;;;;4987071;28;20117;-62
2023/07/14 04:47:12;;;;;;;4.85;2.40;;;16.40;81.30;;;;;;4987129;28;20105;-62
2023/07/14 04:49:40;;;;;;;4.53;2.92;;;16.40;81.20;;;;;;4986327;28;20042;-61
2023/07/14 04:52:06;;;;;;;3.60;2.28;;;16.40;81.50;;;;;;4989342;28;20109;-62
2023/07/14 04:54:32;;;;;;;5.47;2.72;;;16.50;81.30;;;;;;4988662;28;20089;-62
2023/07/14 04:57:00;;;;;;;4.82;2.63;;;16.50;81.20;;;;;;4990091;28;20122;-62
2023/07/14 04:59:26;;;;;;;3.40;2.70;;;16.60;81.20;;;;;;4989216;28;20411;-63
2023/07/14 05:01:52;;;;;;;4.68;2.45;;;16.60;81.00;;;;;;4988669;28;20038;-62
2023/07/14 05:04:20;;;;;;;6.28;2.70;;;16.60;81.20;;;;;;4987087;28;20260;-62
2023/07/14 05:06:46;;;;;;;2.70;2.47;;;16.60;81.70;;;;;;4979839;28;20030;-62
2023/07/14 05:09:12;;;;;;;4.50;2.70;;;16.70;81.40;;;;;;4977288;28;20534;-62
2023/07/14 05:11:38;;;;;;;4.03;2.47;;;16.70;81.30;;;;;;4978636;28;20035;-62
2023/07/14 05:14:04;;;;;;;4.13;2.60;;;16.70;81.30;;;;;;4975406;28;20550;-62
2023/07/14 05:16:30;;;;;;;4.72;2.47;;;16.70;81.30;;;;;;4971384;28;20026;-62
2023/07/14 05:18:55;;;;;;;7.00;2.58;;;16.70;81.50;;;;;;4974206;28;20399;-62
2023/07/14 05:21:21;;;;;;;4.32;2.53;;;16.70;81.70;;;;;;4970253;28;20038;-61
2023/07/14 05:23:46;;;;;;;3.47;2.58;;;16.70;82.00;;;;;;4973201;28;20031;-62
2023/07/14 05:26:12;;;;;;;4.78;2.70;;;16.80;82.20;;;;;;4977169;28;20134;-62
2023/07/14 05:28:37;;;;;;;4.53;2.58;;;16.70;82.30;;;;;;4977156;28;20477;-62
2023/07/14 05:31:07;;;;;;;4.85;2.50;;;16.80;82.20;;;;;;4971074;28;20037;-62
2023/07/14 05:33:32;;;;;;;3.58;2.72;;;16.80;82.20;;;;;;4975645;28;20042;-62
2023/07/14 05:35:58;;;;;;;4.75;2.90;;;16.80;82.30;;;;;;4973535;28;20035;-61
2023/07/14 05:38:24;;;;;;;4.68;2.70;;;16.90;82.40;;;;;;4975048;28;20117;-62
2023/07/14 05:40:53;;;;;;;4.07;2.40;;;17.00;82.90;;;;;;4973549;28;20043;-62
2023/07/14 05:43:19;;;;;;;5.22;2.45;;;17.00;83.10;;;;;;4972283;28;20505;-62
2023/07/14 05:45:47;;;;;;;5.35;2.95;;;17.10;83.00;;;;;;4973625;28;20049;-60
2023/07/14 05:48:14;;;;;;;2.75;2.55;;;17.30;83.20;;;;;;4973151;28;20034;-62
2023/07/14 05:50:43;;;;;;;4.82;3.03;;;17.40;83.10;;;;;;4974189;28;20038;-60
2023/07/14 05:53:08;;;;;;;16.95;12.25;;;17.40;82.90;;;;;;4975114;28;20663;-62
2023/07/14 05:55:35;;;;;;;4.65;3.97;;;17.60;83.00;;;;;;4973558;28;20549;-62
2023/07/14 05:58:00;;;;;;;5.05;3.50;;;17.70;82.70;;;;;;4975380;28;20329;-62
2023/07/14 06:00:26;;;;;;;4.18;3.58;;;17.80;82.40;;;;;;4972389;28;20038;-62
2023/07/14 06:02:52;;;;;;;3.88;2.90;;;17.90;82.40;;;;;;4972773;28;20255;-62
2023/07/14 06:05:19;;;;;;;4.93;3.30;;;17.90;82.10;;;;;;4974168;28;20042;-62
2023/07/14 06:07:45;;;;;;;5.80;3.65;;;18.00;81.90;;;;;;4974633;28;20539;-62
2023/07/14 06:10:12;;;;;;;4.32;3.40;;;18.10;81.70;;;;;;4973826;28;20438;-62
2023/07/14 06:12:40;;;;;;;3.22;3.03;;;18.20;81.50;;;;;;4969643;28;20040;-62
2023/07/14 06:15:06;;;;;;;5.00;3.72;;;18.30;81.50;;;;;;4973470;28;20051;-61
2023/07/14 06:17:32;;;;;;;3.75;3.45;;;18.40;81.30;;;;;;4972896;28;20031;-62
2023/07/14 06:19:57;;;;;;;6.95;4.28;;;18.40;81.20;;;;;;4973926;28;20045;-62
2023/07/14 06:22:23;;;;;;;4.65;3.78;;;18.50;80.60;;;;;;4977463;28;20062;-62
2023/07/14 06:24:49;;;;;;;5.50;3.72;;;18.50;80.60;;;;;;4970290;28;20362;-62
2023/07/14 06:27:15;;;;;;;9.18;3.90;;;18.50;80.10;;;;;;4974286;28;20450;-62
2023/07/14 06:29:40;;;;;;;3.78;3.47;;;18.60;80.10;;;;;;4973571;28;20065;-62
2023/07/14 06:32:06;;;;;;;3.97;3.50;;;18.60;80.40;;;;;;4973481;28;20230;-62
2023/07/14 06:34:32;;;;;;;3.88;3.25;;;18.60;80.60;;;;;;4971711;28;20050;-62
2023/07/14 06:36:58;;;;;;;6.28;3.30;;;18.70;81.20;;;;;;4971693;28;20097;-62
2023/07/14 06:39:23;;;;;;;3.85;3.15;;;18.80;81.30;;;;;;4975966;28;20027;-62
2023/07/14 06:41:52;;;;;;;6.20;3.55;;;18.90;81.00;;;;;;4975073;28;20041;-61
2023/07/14 06:44:17;;;;;;;4.18;3.08;;;19.00;80.90;;;;;;4974222;28;20057;-63
2023/07/14 06:46:43;;;;;;;3.38;3.08;;;19.10;80.30;;;;;;4973456;28;20038;-62
2023/07/14 06:49:10;;;;;;;6.57;3.25;;;19.20;80.10;;;;;;4970435;28;20030;-63
2023/07/14 06:51:35;;;;;;;6.30;3.38;;;19.30;79.80;;;;;;4970695;28;20038;-63
2023/07/14 06:54:04;;;;;;;3.20;2.90;;;19.30;79.80;;;;;;4971476;28;20780;-62
2023/07/14 06:56:29;;;;;;;7.57;3.40;;;19.40;79.60;;;;;;4971916;28;20190;-62
2023/07/14 06:58:58;;;;;;;5.25;3.30;;;19.50;79.30;;;;;;4973060;28;20169;-62
2023/07/14 07:01:25;;;;;;;4.32;3.80;;;19.60;79.00;;;;;;4974783;28;20045;-61
2023/07/14 07:03:53;;;;;;;5.13;3.55;;;19.70;79.60;;;;;;4971251;28;20374;-62
2023/07/14 07:06:19;;;;;;;4.45;3.72;;;19.70;78.60;;;;;;4971248;28;20030;-62
2023/07/14 07:08:45;;;;;;;5.22;3.50;;;19.80;78.00;;;;;;4974068;28;20033;-62
2023/07/14 07:11:12;;;;;;;4.93;3.25;;;19.80;77.60;;;;;;4979360;28;20077;-62
2023/07/14 07:13:38;;;;;;;4.72;3.40;;;20.00;78.00;;;;;;4975453;28;20125;-62
2023/07/14 07:16:04;;;;;;;4.13;3.17;;;20.00;78.00;;;;;;4973763;28;20125;-63
2023/07/14 07:18:32;;;;;;;3.88;3.30;;;20.10;77.40;;;;;;4970254;28;20034;-62
2023/07/14 07:20:57;;;;;;;6.25;3.33;;;20.20;77.30;;;;;;4974441;28;20042;-62
2023/07/14 07:23:23;;;;;;;3.83;3.22;;;20.30;77.10;;;;;;4974331;28;20041;-62
2023/07/14 07:25:51;;;;;;;3.85;3.50;;;20.40;76.40;;;;;;4974036;28;20034;-62
2023/07/14 07:28:18;;;;;;;5.93;3.38;;;20.60;75.80;;;;;;4976530;28;20046;-62
2023/07/14 07:30:44;;;;;;;4.22;3.05;;;20.70;75.60;;;;;;4972887;28;20049;-62
2023/07/14 07:33:10;;;;;;;4.47;3.38;;;20.80;75.60;;;;;;4973220;28;20594;-62
2023/07/14 07:35:40;;;;;;;3.70;3.00;;;20.90;75.40;;;;;;4975100;28;20129;-62
2023/07/14 07:38:07;;;;;;;4.57;2.80;;;21.00;75.10;;;;;;4973448;28;20034;-62
2023/07/14 07:40:33;;;;;;;6.05;3.00;;;21.10;74.70;;;;;;4974759;28;20034;-61
2023/07/14 07:43:01;;;;;;;3.53;2.83;;;21.30;74.70;;;;;;4974846;28;20478;-62
2023/07/14 07:45:27;;;;;;;4.13;3.05;;;21.30;74.00;;;;;;4975491;28;20049;-62
2023/07/14 07:47:52;;;;;;;4.43;3.05;;;21.40;73.60;;;;;;4974327;28;20042;-62
2023/07/14 07:50:18;;;;;;;5.03;3.35;;;21.50;73.30;;;;;;4972426;28;20101;-62
2023/07/14 07:52:45;;;;;;;4.47;2.70;;;21.60;73.10;;;;;;4974537;28;20041;-61
2023/07/14 07:55:11;;;;;;;4.47;2.97;;;21.70;73.30;;;;;;4973587;28;20069;-62
2023/07/14 07:57:36;;;;;;;6.30;3.40;;;21.80;73.00;;;;;;4972007;28;20499;-62
2023/07/14 08:00:07;;;;;;;3.55;2.75;;;21.80;72.60;;;;;;4973779;28;20434;-62
2023/07/14 08:02:35;;;;;;;4.13;2.80;;;21.90;72.10;;;;;;4969361;28;20085;-62
2023/07/14 08:05:02;;;;;;;4.90;2.72;;;22.10;71.70;;;;;;4972737;28;20062;-62
2023/07/14 08:07:27;;;;;;;4.10;2.45;;;22.10;72.00;;;;;;4976086;28;20464;-62
2023/07/14 08:09:53;;;;;;;4.60;2.40;;;22.20;71.90;;;;;;4973893;28;20030;-62
2023/07/14 08:12:19;;;;;;;3.10;2.35;;;22.40;71.50;;;;;;4973348;28;20554;-62
2023/07/14 08:14:55;;;;;;;3.90;2.40;;;22.50;70.40;;;;;;4971757;28;20046;-63
2023/07/14 08:17:26;;;;;;;3.40;2.03;;;22.50;69.70;;;;;;4974266;28;20046;-62
2023/07/14 08:19:51;;;;;;;2.45;1.90;;;22.70;69.40;;;;;;4975043;28;20439;-62
2023/07/14 08:22:18;;;;;;;4.93;1.80;;;22.80;69.00;;;;;;4974383;28;20260;-63
2023/07/14 08:24:43;;;;;;;1.85;1.35;;;22.90;68.10;;;;;;4975136;28;20387;-63
2023/07/14 08:27:09;;;;;;;1.92;1.60;;;23.00;68.10;;;;;;4974619;28;20038;-62
2023/07/14 08:29:34;;;;;;;6.20;1.75;;;23.20;67.80;;;;;;4974354;28;20043;-63
2023/07/14 08:32:00;;;;;;;3.70;2.10;;;23.30;66.90;;;;;;4971364;28;20348;-62
2023/07/14 08:34:27;;;;;;;2.85;1.77;;;23.40;66.10;;;;;;4975519;28;20066;-61
2023/07/14 08:36:53;;;;;;;3.55;1.70;;;23.40;65.70;;;;;;4971975;28;20046;-62
2023/07/14 08:39:19;;;;;;;1.83;1.60;;;23.60;65.70;;;;;;4974388;28;20061;-63
2023/07/14 08:41:46;;;;;;;1.95;1.75;;;23.70;65.10;;;;;;4975745;28;20042;-63
2023/07/14 08:44:17;;;;;;;2.55;1.50;;;23.80;64.60;;;;;;4978445;28;20477;-63
2023/07/14 08:46:54;;;;;;;2.88;1.98;;;23.80;64.00;;;;;;4978161;28;20538;-63
2023/07/14 08:49:25;;;;;;;2.53;1.60;;;24.00;62.70;;;;;;4979308;28;20237;-62
2023/07/14 08:51:54;;;;;;;2.05;1.60;;;24.10;63.10;;;;;;4977093;28;20537;-62
2023/07/14 08:54:22;;;;;;;2.47;1.33;;;24.20;63.40;;;;;;4975591;28;20410;-62
2023/07/14 08:56:49;;;;;;;2.60;1.50;;;24.30;63.30;;;;;;4972779;28;20046;-62
2023/07/14 08:59:25;;;;;;;2.70;1.77;;;24.40;62.70;;;;;;4974949;28;20102;-63
2023/07/14 09:01:56;;;;;;;3.10;1.40;;;24.50;61.30;;;;;;4978232;28;20030;-63
2023/07/14 09:04:31;;;;;;;1.98;1.40;;;24.70;61.30;;;;;;4978952;28;20034;-62
2023/07/14 09:06:57;;;;;;;3.95;1.40;;;24.70;60.60;;;;;;4978693;28;20039;-63
2023/07/14 09:09:34;;;;;;;1.38;1.23;;;24.90;61.40;;;;;;4978111;28;20045;-63
2023/07/14 09:12:18;;;;;;;1.83;1.52;;;25.00;59.50;;;;;;4978457;28;20085;-62
2023/07/14 09:15:02;;;;;;;3.10;1.30;;;25.10;60.20;;;;;;4978461;28;20402;-63
2023/07/14 09:17:45;;;;;;;2.72;1.60;;;25.20;59.20;;;;;;4979614;28;20049;-62
2023/07/14 09:20:23;;;;;;;12.55;1.38;;;25.30;58.80;;;;;;4978270;28;20514;-62
2023/07/14 09:22:57;;;;;;;2.20;1.27;;;25.40;59.30;;;;;;4977455;28;20093;-63
2023/07/14 09:25:37;;;;;;;;;;;25.50;58.20;;;;;;4977506;28;20033;-63
2023/07/14 09:28:09;;;;;;;2.97;1.20;;;25.50;60.00;;;;;;4977920;28;19926;-62
2023/07/14 09:30:35;;;;;;;1.45;1.20;;;25.60;59.00;;;;;;4978244;28;20156;-64
2023/07/14 09:33:03;;;;;;;4.60;1.40;;;25.70;58.10;;;;;;4974077;28;20584;-63
2023/07/14 09:35:30;;;;;;;2.47;1.33;;;25.70;57.60;;;;;;4976859;28;20097;-63
2023/07/14 09:38:14;;;;;;;2.05;1.25;;;25.80;57.40;;;;;;4975291;28;20164;-63
2023/07/14 09:40:42;;;;;;;2.47;1.30;;;25.80;57.50;;;;;;4973410;28;20038;-64
2023/07/14 09:43:11;;;;;;;2.10;1.13;;;25.90;57.40;;;;;;4975315;28;20126;-64
2023/07/14 09:45:39;;;;;;;2.22;1.10;;;26.00;56.90;;;;;;4979419;28;20109;-64
2023/07/14 09:48:16;;;;;;;1.60;1.02;;;26.00;56.40;;;;;;4976629;28;20042;-62
2023/07/14 09:50:50;;;;;;;1.20;1.10;;;26.10;55.60;;;;;;4975413;28;20371;-64
2023/07/14 09:53:16;;;;;;;1.45;1.20;;;26.20;55.90;;;;;;4975043;28;20538;-63
2023/07/14 09:56:07;;;;;;;2.65;1.30;;;26.20;56.20;;;;;;4975517;28;20061;-64
2023/07/14 09:58:34;;;;;;;2.45;1.20;;;26.30;54.90;;;;;;4974115;28;20042;-64
2023/07/14 10:01:04;;;;;;;1.48;1.20;;;26.40;55.50;;;;;;4971044;28;20596;-64
2023/07/14 10:03:55;;;;;;;3.05;1.30;;;26.40;54.90;;;;;;4972839;28;20039;-63
2023/07/14 10:06:25;;;;;;;1.33;1.10;;;26.50;54.20;;;;;;4976638;28;20549;-63
2023/07/14 10:08:59;;;;;;;2.88;1.27;;;26.60;54.50;;;;;;4975853;28;20046;-63
2023/07/14 10:11:41;;;;;;;2.47;1.20;;;26.60;53.90;;;;;;4977015;28;20040;-63
2023/07/14 10:14:15;;;;;;;3.47;1.27;;;26.70;52.40;;;;;;4977380;28;20038;-63
2023/07/14 10:16:43;;;;;;;1.25;1.00;;;26.80;53.40;;;;;;4975591;28;20058;-63
2023/07/14 10:19:49;;;;;;;3.67;1.00;;;26.80;53.80;;;;;;4975379;28;20035;-63
2023/07/14 10:22:19;;;;;;;1.30;1.00;;;26.90;52.30;;;;;;4975012;28;20532;-63
2023/07/14 10:24:55;;;;;;;1.38;0.98;;;27.00;52.60;;;;;;4978206;28;20422;-63
2023/07/14 10:27:29;;;;;;;1.05;0.90;;;27.10;53.00;;;;;;4977915;28;20040;-63
2023/07/14 10:29:57;;;;;;;1.58;1.30;;;27.20;52.70;;;;;;4975412;28;20073;-61
2023/07/14 10:32:27;;;;;;;1.17;0.77;;;27.30;51.80;;;;;;4976273;28;20046;-63
2023/07/14 10:35:17;;;;;;;3.65;1.10;;;27.30;52.10;;;;;;4975942;28;20054;-63
2023/07/14 10:38:09;;;;;;;1.70;0.88;;;27.40;51.40;;;;;;4975877;28;20577;-63
2023/07/14 10:40:40;;;;;;;1.83;0.82;;;27.50;51.40;;;;;;4972451;28;20066;-63
2023/07/14 10:43:15;;;;;;;1.45;0.98;;;27.50;51.30;;;;;;4976412;28;20105;-62
2023/07/14 10:45:44;;;;;;;;;;;27.60;48.30;;;;;;4978336;28;20043;-61
2023/07/14 10:48:24;;;;;;;1.23;0.90;;;27.60;49.70;;;;;;4975314;28;19928;-63
2023/07/14 10:50:59;;;;;;;1.08;0.85;;;27.60;50.30;;;;;;4972835;28;20162;-63
2023/07/14 10:53:31;;;;;;;1.35;0.85;;;27.60;50.50;;;;;;4971465;28;20038;-62
2023/07/14 10:56:01;;;;;;;3.53;1.40;;;27.60;50.90;;;;;;4974327;28;20085;-63
2023/07/14 10:58:44;;;;;;;1.40;0.82;;;27.70;50.90;;;;;;4973902;28;20118;-63
2023/07/14 11:01:23;;;;;;;1.60;1.05;;;27.70;50.30;;;;;;4975758;28;20035;-63
2023/07/14 11:03:55;;;;;;;0.90;0.80;;;27.80;50.00;;;;;;4958699;28;20045;-62
2023/07/14 11:06:30;;;;;;;1.77;0.75;;;27.80;49.90;;;;;;4965681;28;20061;-63
2023/07/14 11:08:57;;;;;;;2.05;1.13;;;27.90;50.10;;;;;;4965453;28;20450;-62
2023/07/14 11:11:39;;;;;;;2.80;1.20;;;27.90;50.00;;;;;;4967639;28;20035;-62
2023/07/14 11:14:29;;;;;;;1.45;0.80;;;27.90;49.20;;;;;;4968078;28;20156;-63
2023/07/14 11:17:00;;;;;;;1.50;1.20;;;28.00;48.90;;;;;;4965818;28;20035;-62
2023/07/14 11:19:45;;;;;;;1.73;0.98;;;28.00;49.80;;;;;;4971833;28;20035;-61
2023/07/14 11:22:16;;;;;;;2.85;1.00;;;28.10;48.70;;;;;;4971213;28;20579;-62
2023/07/14 11:25:09;;;;;;;1.73;0.98;;;28.20;49.40;;;;;;4972952;28;20081;-61
2023/07/14 11:27:56;;;;;;;1.42;0.80;;;28.20;49.50;;;;;;4969662;28;20529;-62
2023/07/14 11:30:29;;;;;;;1.63;0.80;;;28.30;49.40;;;;;;4969717;28;20039;-64
2023/07/14 11:33:14;;;;;;;1.15;0.90;;;28.40;48.90;;;;;;4969107;28;20050;-64
2023/07/14 11:35:48;;;;;;;;;;;28.40;48.70;;;;;;4967332;28;20948;-62
2023/07/14 11:38:23;;;;;;;1.97;0.87;;;28.40;50.90;;;;;;4972156;28;19918;-61
2023/07/14 11:40:49;;;;;;;1.50;1.13;;;28.40;49.50;;;;;;4967023;28;20282;-63
2023/07/14 11:43:21;;;;;;;1.75;1.02;;;28.50;49.70;;;;;;4966172;28;20031;-63
2023/07/14 11:45:58;;;;;;;1.13;1.00;;;28.50;49.00;;;;;;4971333;28;20061;-62
2023/07/14 11:48:37;;;;;;;1.05;0.93;;;28.50;48.20;;;;;;4969769;28;20581;-63
2023/07/14 11:51:11;;;;;;;1.50;0.90;;;28.50;48.20;;;;;;4971085;28;20045;-64
2023/07/14 11:53:41;;;;;;;1.23;0.90;;;28.50;48.50;;;;;;4968236;28;20038;-64
2023/07/14 11:56:35;;;;;;;3.17;1.00;;;28.60;48.10;;;;;;4968246;28;20518;-64
2023/07/14 11:59:22;;;;;;;2.00;0.90;;;28.50;47.60;;;;;;4966224;28;20243;-64
2023/07/14 12:01:52;;;;;;;3.15;1.05;;;28.60;48.20;;;;;;4968852;28;20446;-63
2023/07/14 12:04:29;;;;;;;2.35;0.98;;;28.60;48.20;;;;;;4970780;28;20473;-63
2023/07/14 12:07:16;;;;;;;1.17;1.08;;;28.60;48.30;;;;;;4969434;28;20031;-63
2023/07/14 12:10:08;;;;;;;3.22;1.20;;;28.60;47.40;;;;;;4974404;28;20410;-63
2023/07/14 12:12:34;;;;;;;1.13;1.00;;;28.70;46.20;;;;;;4971726;28;20118;-63
2023/07/14 12:15:00;;;;;;;1.20;1.10;;;28.70;47.40;;;;;;4974348;28;20043;-63
2023/07/14 12:17:41;;;;;;;1.90;1.10;;;28.70;47.80;;;;;;4977979;28;20045;-63
2023/07/14 12:20:13;;;;;;;1.30;0.95;;;28.60;45.00;;;;;;4979180;28;20030;-63
2023/07/14 12:22:49;;;;;;;2.08;1.30;;;28.60;45.80;;;;;;4977918;28;20031;-64
2023/07/14 12:25:21;;;;;;;1.67;1.17;;;28.60;46.90;;;;;;4977549;28;20042;-64
2023/07/14 12:27:52;;;;;;;1.50;1.13;;;28.50;46.50;;;;;;4980152;28;20039;-63
2023/07/14 12:30:29;;;;;;;6.05;1.00;;;28.60;47.00;;;;;;4978393;28;20462;-64
2023/07/14 12:33:04;;;;;;;1.25;1.02;;;28.60;47.50;;;;;;4976163;28;20466;-64
2023/07/14 12:35:33;;;;;;;1.45;1.00;;;28.60;47.50;;;;;;4978577;28;20046;-63
2023/07/14 12:38:20;;;;;;;1.58;1.00;;;28.70;48.00;;;;;;4979410;28;20045;-63
2023/07/14 12:40:50;;;;;;;1.40;0.95;;;28.70;47.80;;;;;;4976681;28;20043;-64
2023/07/14 12:43:29;;;;;;;1.10;0.98;;;28.70;47.60;;;;;;4979458;28;20581;-63
2023/07/14 12:45:56;;;;;;;2.50;0.90;;;28.70;46.60;;;;;;4977040;28;20104;-64
2023/07/14 12:48:28;;;;;;;1.25;1.15;;;28.70;47.20;;;;;;4976638;28;20047;-64
2023/07/14 12:50:55;;;;;;;1.13;1.02;;;28.70;46.40;;;;;;4977169;28;20039;-63
2023/07/14 12:53:21;;;;;;;0.90;0.90;;;28.70;47.20;;;;;;4976520;28;20038;-64
2023/07/14 12:55:46;;;;;;;2.67;1.23;;;28.80;47.20;;;;;;4974059;28;20066;-63
2023/07/14 12:58:22;;;;;;;2.53;1.00;;;28.80;46.80;;;;;;4973910;28;20086;-64
2023/07/14 13:00:56;;;;;;;1.58;0.90;;;28.90;47.40;;;;;;4981924;28;20039;-63
2023/07/14 13:03:23;;;;;;;2.00;1.20;;;28.90;47.10;;;;;;4977869;28;20081;-63